Time;durP1;ratioP1;P1;durP2;ratioP2;P2;SDS_P1;SDS_P2;PMS_P1;PMS_P2;Temp;Humidity;BMP_temperature;BMP_pressure;BME280_temperature;BME280_humidity;BME280_pressure;Samples;Min_cycle;Max_cycle;Signal;HPM_P1;HPM_P2
2022/06/03 00:01:50;;;;;;;11.18;6.43;;;;;;;13.86;100.00;96736.41;5038570;28;20117;-65
2022/06/03 00:04:34;;;;;;;7.80;6.25;;;;;;;13.69;100.00;96729.66;5006525;28;20038;-67
2022/06/03 00:07:17;;;;;;;9.93;7.00;;;;;;;13.57;100.00;96711.50;5003327;28;20168;-66
2022/06/03 00:09:45;;;;;;;11.63;6.72;;;;;;;13.49;100.00;96701.66;5004838;28;20129;-68
2022/06/03 00:12:34;;;;;;;10.50;7.28;;;;;;;13.26;100.00;96694.41;5014010;28;20033;-67
2022/06/03 00:15:49;;;;;;;11.80;6.32;;;;;;;13.37;100.00;96692.53;5000633;28;20046;-65
2022/06/03 00:18:48;;;;;;;9.27;6.60;;;;;;;13.64;100.00;96684.00;4991550;28;20052;-68
2022/06/03 00:21:34;;;;;;;10.83;6.47;;;;;;;13.81;100.00;96681.72;4996432;28;20049;-67
2022/06/03 00:24:17;;;;;;;8.10;5.75;;;;;;;13.84;100.00;96676.22;5013408;28;20644;-62
2022/06/03 00:27:03;;;;;;;6.82;5.25;;;;;;;13.74;100.00;96677.78;5007512;28;20570;-67
2022/06/03 00:29:41;;;;;;;7.97;5.78;;;;;;;13.77;100.00;96679.75;5001380;28;20053;-67
2022/06/03 00:32:21;;;;;;;14.95;6.90;;;;;;;13.76;100.00;96671.88;4998583;28;20145;-66
2022/06/03 00:35:06;;;;;;;9.88;7.28;;;;;;;13.61;100.00;96679.28;5002271;28;20092;-66
2022/06/03 00:37:59;;;;;;;12.82;7.80;;;;;;;13.59;100.00;96681.63;5000500;28;20103;-67
2022/06/03 00:40:28;;;;;;;10.25;7.28;;;;;;;13.66;100.00;96683.63;4985849;28;20084;-67
2022/06/03 00:43:15;;;;;;;11.07;7.00;;;;;;;13.72;100.00;96695.84;4998539;28;20044;-67
2022/06/03 00:45:46;;;;;;;10.52;6.53;;;;;;;13.88;100.00;96699.06;5015577;28;20509;-67
2022/06/03 00:48:29;;;;;;;8.10;5.47;;;;;;;13.94;100.00;96708.50;5016678;28;20048;-66
2022/06/03 00:51:21;;;;;;;7.95;5.43;;;;;;;13.94;100.00;96710.50;5031263;28;20033;-67
2022/06/03 00:54:24;;;;;;;7.57;6.00;;;;;;;13.79;100.00;96697.84;4989112;28;20050;-67
2022/06/03 00:57:19;;;;;;;8.85;6.00;;;;;;;13.77;100.00;96704.53;5003255;28;20139;-66
2022/06/03 01:00:02;;;;;;;11.38;6.57;;;;;;;13.73;100.00;96711.19;5020835;28;20045;-67
2022/06/03 01:02:31;;;;;;;8.95;6.00;;;;;;;13.70;100.00;96711.94;4985114;28;20115;-65
2022/06/03 01:05:15;;;;;;;9.35;7.13;;;;;;;13.65;100.00;96713.13;5001247;28;20045;-67
2022/06/03 01:07:47;;;;;;;8.77;5.53;;;;;;;13.81;100.00;96712.81;5002359;28;20033;-67
2022/06/03 01:10:53;;;;;;;6.63;5.38;;;;;;;13.92;100.00;96718.34;4993682;28;20038;-66
2022/06/03 01:13:33;;;;;;;8.98;5.45;;;;;;;14.18;100.00;96719.19;4999056;28;20592;-67
2022/06/03 01:16:16;;;;;;;6.55;4.80;;;;;;;14.33;100.00;96721.59;4999899;28;20042;-66
2022/06/03 01:18:59;;;;;;;7.72;5.30;;;;;;;14.39;100.00;96718.47;5002636;28;20049;-66
2022/06/03 01:21:30;;;;;;;9.35;5.22;;;;;;;14.43;100.00;96713.75;4997305;28;20117;-64
2022/06/03 01:24:18;;;;;;;9.10;5.45;;;;;;;14.47;100.00;96709.78;5013244;28;20045;-65
2022/06/03 01:27:31;;;;;;;9.00;6.50;;;;;;;13.96;100.00;96705.38;5003627;28;20038;-67
2022/06/03 01:30:18;;;;;;;8.82;7.30;;;;;;;13.36;100.00;96692.91;5009801;28;20038;-65
2022/06/03 01:33:18;;;;;;;15.10;8.38;;;;;;;12.79;100.00;96690.59;5002878;28;20038;-68
2022/06/03 01:36:17;;;;;;;9.88;7.75;;;;;;;12.89;100.00;96698.13;5009452;28;20096;-66
2022/06/03 01:39:05;;;;;;;12.65;7.35;;;;;;;12.97;100.00;96707.22;4995205;28;20056;-65
2022/06/03 01:42:08;;;;;;;10.82;8.35;;;;;;;13.12;100.00;96702.59;5000275;28;20058;-67
2022/06/03 01:45:10;;;;;;;10.30;7.25;;;;;;;13.30;100.00;96721.94;4996912;28;20076;-67
2022/06/03 01:47:56;;;;;;;7.82;6.50;;;;;;;13.39;100.00;96708.66;4999766;28;20056;-67
2022/06/03 01:50:48;;;;;;;9.45;7.30;;;;;;;13.30;100.00;96708.19;4992845;28;20038;-66
2022/06/03 01:53:31;;;;;;;12.07;8.70;;;;;;;13.15;100.00;96705.34;5000943;28;20038;-65
2022/06/03 01:56:24;;;;;;;13.45;9.35;;;;;;;12.96;100.00;96697.38;5001281;28;20049;-66
2022/06/03 01:58:49;;;;;;;13.38;8.30;;;;;;;12.94;100.00;96706.00;5005846;28;20046;-66
2022/06/03 02:01:37;;;;;;;12.98;7.55;;;;;;;12.74;100.00;96688.97;4996796;28;20131;-67
2022/06/03 02:04:29;;;;;;;9.10;7.93;;;;;;;12.65;100.00;96693.22;5000790;28;20100;-66
2022/06/03 02:07:16;;;;;;;10.73;8.27;;;;;;;12.63;100.00;96682.59;5001412;28;20041;-67
2022/06/03 02:10:04;;;;;;;16.38;8.73;;;;;;;12.79;100.00;96674.88;5001642;28;20049;-68
2022/06/03 02:12:53;;;;;;;18.13;7.75;;;;;;;12.87;100.00;96675.69;5019295;28;20048;-66
2022/06/03 02:15:35;;;;;;;16.88;9.23;;;;;;;12.65;100.00;96679.47;5017113;28;20108;-66
2022/06/03 02:18:13;;;;;;;11.88;8.00;;;;;;;12.79;100.00;96685.09;5007435;28;20749;-67
2022/06/03 02:21:13;;;;;;;14.15;8.57;;;;;;;12.84;100.00;96683.91;5000715;28;20499;-67
2022/06/03 02:23:44;;;;;;;10.20;7.80;;;;;;;12.75;100.00;96681.53;5000228;28;20118;-66
2022/06/03 02:26:31;;;;;;;10.35;7.97;;;;;;;12.66;100.00;96675.53;5010948;28;20189;-66
2022/06/03 02:32:45;;;;;;;12.30;8.80;;;;;;;12.48;100.00;96691.88;4994397;28;20034;-67
2022/06/03 02:35:33;;;;;;;12.95;9.27;;;;;;;12.46;100.00;96705.22;4996873;28;20042;-66
2022/06/03 02:38:20;;;;;;;15.48;8.75;;;;;;;12.70;100.00;96699.16;4996720;28;20427;-67
2022/06/03 02:40:52;;;;;;;13.82;9.30;;;;;;;12.90;100.00;96710.69;5000399;28;20601;-68
2022/06/03 02:43:45;;;;;;;9.73;8.00;;;;;;;12.92;100.00;96711.09;4996576;28;20128;-67
2022/06/03 02:46:26;;;;;;;13.55;8.80;;;;;;;12.76;100.00;96714.09;4993083;28;20091;-65
2022/06/03 02:49:29;;;;;;;10.55;8.10;;;;;;;12.68;100.00;96708.97;4996331;28;20438;-67
2022/06/03 02:52:13;;;;;;;14.25;8.57;;;;;;;12.39;100.00;96712.22;5009667;28;20038;-65
2022/06/03 02:54:48;;;;;;;13.48;9.20;;;;;;;12.34;100.00;96714.53;5002258;28;20717;-67
2022/06/03 02:57:36;;;;;;;13.32;9.13;;;;;;;12.14;100.00;96709.25;5008534;28;20041;-67
2022/06/03 03:00:25;;;;;;;11.20;8.35;;;;;;;12.21;100.00;96716.75;4999002;28;20100;-64
2022/06/03 03:03:09;;;;;;;11.30;9.07;;;;;;;12.31;100.00;96705.06;5010904;28;20407;-64
2022/06/03 03:05:49;;;;;;;14.05;11.00;;;;;;;12.18;100.00;96690.06;4995331;28;20050;-66
2022/06/03 03:08:49;;;;;;;18.35;12.52;;;;;;;12.10;100.00;96708.41;5003973;28;20379;-66
2022/06/03 03:11:27;;;;;;;14.75;11.27;;;;;;;12.19;100.00;96721.81;5016077;28;20132;-65
2022/06/03 03:14:20;;;;;;;17.23;11.35;;;;;;;12.42;100.00;96733.47;5009080;28;20129;-66
2022/06/03 03:17:17;;;;;;;13.73;9.98;;;;;;;12.70;100.00;96734.09;4978277;28;20161;-66
2022/06/03 03:19:42;;;;;;;13.35;9.25;;;;;;;12.91;100.00;96727.97;4998061;28;20181;-67
2022/06/03 03:22:27;;;;;;;11.70;8.70;;;;;;;12.95;100.00;96734.28;4994309;28;20038;-67
2022/06/03 03:24:55;;;;;;;12.20;8.55;;;;;;;13.02;100.00;96745.34;5014588;28;20037;-67
2022/06/03 03:27:46;;;;;;;14.13;7.63;;;;;;;13.08;100.00;96743.81;4994706;28;20134;-65
2022/06/03 03:30:38;;;;;;;11.68;8.15;;;;;;;12.95;100.00;96732.31;4995924;28;20513;-67
2022/06/03 03:33:16;;;;;;;11.40;8.60;;;;;;;13.03;100.00;96741.41;4997918;28;20119;-64
2022/06/03 03:36:18;;;;;;;10.63;7.75;;;;;;;13.03;100.00;96741.41;4997858;28;20061;-67
2022/06/03 03:38:57;;;;;;;11.18;7.90;;;;;;;13.05;100.00;96735.53;4996393;28;20078;-67
2022/06/03 03:42:04;;;;;;;10.63;7.30;;;;;;;13.35;100.00;96738.13;4992917;28;20148;-66
2022/06/03 03:44:31;;;;;;;14.10;7.47;;;;;;;13.54;100.00;96740.59;5002296;28;20038;-66
2022/06/03 03:47:45;;;;;;;7.70;6.90;;;;;;;13.62;100.00;96737.88;4998912;28;20113;-66
2022/06/03 03:50:35;;;;;;;13.15;7.05;;;;;;;13.73;100.00;96730.44;5021955;28;20114;-66
2022/06/03 03:53:29;;;;;;;12.20;7.38;;;;;;;13.70;100.00;96732.03;5009917;28;20379;-65
2022/06/03 03:56:32;;;;;;;13.57;8.07;;;;;;;13.34;100.00;96729.09;5011748;28;20038;-65
2022/06/03 03:59:09;;;;;;;19.13;9.00;;;;;;;13.01;100.00;96713.50;5002664;28;20530;-64
2022/06/03 04:02:20;;;;;;;14.45;9.43;;;;;;;12.62;100.00;96700.25;4997699;28;20160;-67
2022/06/03 04:05:01;;;;;;;17.42;11.80;;;;;;;12.48;100.00;96684.44;5007628;28;20034;-66
2022/06/03 04:07:51;;;;;;;19.10;12.15;;;;;;;12.45;100.00;96663.22;4993312;28;20065;-67
2022/06/03 04:10:22;;;;;;;;;;;;;;;12.48;100.00;96664.41;4981025;28;20045;-67
2022/06/03 04:13:13;;;;;;;16.00;12.25;;;;;;;12.58;100.00;96672.75;5022081;28;19970;-67
2022/06/03 04:16:12;;;;;;;18.27;13.27;;;;;;;12.75;100.00;96676.81;5008875;28;20049;-67
2022/06/03 04:18:56;;;;;;;17.50;11.85;;;;;;;13.20;100.00;96683.00;5000516;28;20632;-66
2022/06/03 04:21:50;;;;;;;16.55;12.27;;;;;;;13.28;100.00;96675.56;4995958;28;20185;-65
2022/06/03 04:24:30;;;;;;;16.13;12.05;;;;;;;13.39;100.00;96692.16;4991367;28;20056;-67
2022/06/03 04:27:17;;;;;;;17.08;11.65;;;;;;;13.80;100.00;96680.16;5003182;28;20042;-66
2022/06/03 04:30:13;;;;;;;15.30;11.50;;;;;;;14.15;100.00;96677.50;5002216;28;20050;-66
2022/06/03 04:33:01;;;;;;;13.07;10.23;;;;;;;14.13;100.00;96692.81;5000811;28;20042;-66
2022/06/03 04:35:40;;;;;;;16.42;11.05;;;;;;;14.12;100.00;96696.78;4997919;28;20144;-65
2022/06/03 04:38:27;;;;;;;14.15;10.43;;;;;;;14.10;100.00;96691.66;4993658;28;20121;-67
2022/06/03 04:41:05;;;;;;;13.40;10.93;;;;;;;14.09;100.00;96714.06;5002498;28;20046;-67
2022/06/03 04:43:58;;;;;;;13.40;10.98;;;;;;;14.23;100.00;96705.84;5003201;28;20147;-66
2022/06/03 04:46:58;;;;;;;16.83;11.30;;;;;;;14.20;100.00;96703.84;5008875;28;20549;-67
2022/06/03 04:49:23;;;;;;;;;;;;;;;14.51;100.00;96707.03;5008198;28;20038;-67
2022/06/03 04:52:38;;;;;;;11.53;9.03;;;;;;;14.87;100.00;96718.94;5006013;28;20012;-66
2022/06/03 04:55:22;;;;;;;15.95;8.63;;;;;;;15.23;100.00;96724.41;5010278;28;20300;-64
2022/06/03 04:58:03;;;;;;;10.82;7.80;;;;;;;15.63;100.00;96725.09;5021232;28;20069;-66
2022/06/03 05:00:48;;;;;;;12.35;8.05;;;;;;;16.69;100.00;96720.59;5014224;28;20072;-67
2022/06/03 05:03:41;;;;;;;8.07;6.72;;;;;;;16.82;100.00;96713.41;4995452;28;20103;-65
2022/06/03 05:06:44;;;;;;;9.82;6.57;;;;;;;16.80;100.00;96724.88;4986049;28;20499;-66
2022/06/03 05:10:03;;;;;;;8.00;5.80;;;;;;;16.90;100.00;96728.78;4998288;28;20064;-67
2022/06/03 05:12:53;;;;;;;10.48;6.25;;;;;;;16.62;100.00;96727.00;4917029;29;20047;-67
2022/06/03 05:15:48;;;;;;;11.13;6.75;;;;;;;15.82;100.00;96714.78;4974537;28;20042;-68
2022/06/03 05:18:44;;;;;;;10.05;7.80;;;;;;;15.50;100.00;96707.38;4992874;28;20046;-68
2022/06/03 05:21:12;;;;;;;12.75;8.35;;;;;;;15.57;100.00;96701.84;4989794;28;20125;-66
2022/06/03 05:24:13;;;;;;;9.32;6.15;;;;;;;16.30;100.00;96696.81;4999648;28;20434;-68
2022/06/03 05:27:26;;;;;;;10.40;6.65;;;;;;;16.89;100.00;96684.91;4998236;28;20060;-67
2022/06/03 05:30:06;;;;;;;10.02;6.75;;;;;;;17.54;100.00;96690.63;4985315;28;20042;-67
2022/06/03 05:32:40;;;;;;;11.25;6.90;;;;;;;17.88;100.00;96698.13;4993297;28;20077;-67
2022/06/03 05:35:18;;;;;;;8.30;6.40;;;;;;;18.18;100.00;96694.56;4989880;28;20053;-68
2022/06/03 05:38:12;;;;;;;8.65;5.78;;;;;;;18.40;100.00;96694.28;5002741;28;20038;-68
2022/06/03 05:40:58;;;;;;;9.25;6.50;;;;;;;18.17;100.00;96693.03;4995808;28;20041;-69
2022/06/03 05:43:50;;;;;;;10.45;6.15;;;;;;;18.01;100.00;96703.94;4995535;28;20045;-67
2022/06/03 05:46:19;;;;;;;10.65;5.88;;;;;;;17.99;100.00;96722.94;4992796;28;20045;-66
2022/06/03 05:49:03;;;;;;;9.63;5.90;;;;;;;17.84;100.00;96716.75;5002047;28;20068;-65
2022/06/03 05:51:28;;;;;;;10.35;5.97;;;;;;;18.15;100.00;96715.63;4983989;28;20045;-64
2022/06/03 05:54:04;;;;;;;11.10;5.80;;;;;;;18.96;100.00;96716.03;5022181;28;20043;-66
2022/06/03 05:56:48;;;;;;;10.50;5.50;;;;;;;20.18;100.00;96711.75;5026437;28;20069;-66
2022/06/03 05:59:22;;;;;;;5.70;4.28;;;;;;;20.89;94.32;96700.25;4998168;28;20034;-68
2022/06/03 06:02:17;;;;;;;12.48;4.60;;;;;;;21.33;91.48;96686.78;5010211;28;20049;-66
2022/06/03 06:05:01;;;;;;;9.77;5.65;;;;;;;21.02;90.26;96680.84;5008337;28;20042;-67
2022/06/03 06:07:35;;;;;;;13.32;10.10;;;;;;;18.87;100.00;96670.19;4997196;28;20050;-67
2022/06/03 06:10:36;;;;;;;10.35;7.22;;;;;;;19.55;100.00;96665.38;4995301;28;20419;-66
2022/06/03 06:13:27;;;;;;;10.13;5.60;;;;;;;19.38;100.00;96672.06;5012729;28;20437;-64
2022/06/03 06:16:01;;;;;;;12.00;6.20;;;;;;;19.86;100.00;96668.75;5021407;28;20103;-67
2022/06/03 06:18:55;;;;;;;8.38;5.40;;;;;;;19.98;100.00;96656.19;5000237;28;20078;-67
2022/06/03 06:21:47;;;;;;;10.57;6.05;;;;;;;19.91;100.00;96661.13;4993092;28;20069;-67
2022/06/03 06:24:18;;;;;;;6.70;5.13;;;;;;;21.83;93.24;96667.16;5014164;28;20042;-66
2022/06/03 06:27:01;;;;;;;11.32;5.60;;;;;;;20.51;97.54;96666.53;4998119;28;20396;-66
2022/06/03 06:29:52;;;;;;;7.43;5.43;;;;;;;21.24;93.40;96667.13;4997192;28;20482;-67
2022/06/03 06:33:02;;;;;;;9.05;5.05;;;;;;;21.70;90.82;96659.53;5010410;28;20041;-66
2022/06/03 06:36:22;;;;;;;8.05;5.32;;;;;;;20.05;100.00;96664.38;4976351;28;20046;-65
2022/06/03 06:39:18;;;;;;;7.63;5.18;;;;;;;21.26;96.89;96658.34;5000029;28;20136;-67
2022/06/03 06:42:00;;;;;;;6.15;5.25;;;;;;;21.59;96.57;96659.06;5000643;28;20522;-67
2022/06/03 06:44:37;;;;;;;7.70;5.55;;;;;;;22.06;90.78;96660.50;4993967;28;20057;-66
2022/06/03 06:47:16;;;;;;;7.22;5.00;;;;;;;24.31;77.69;96658.88;4988096;28;20034;-67
2022/06/03 06:49:47;;;;;;;9.70;4.90;;;;;;;23.88;78.89;96654.91;4995030;28;20578;-64
2022/06/03 06:52:19;;;;;;;11.02;5.10;;;;;;;23.06;81.10;96648.97;4994592;28;20046;-67
2022/06/03 06:55:15;;;;;;;8.98;5.13;;;;;;;21.97;88.35;96641.66;4999220;28;20034;-66
2022/06/03 06:57:46;;;;;;;6.60;4.32;;;;;;;23.63;76.95;96645.41;5005663;28;20045;-65
2022/06/03 07:00:25;;;;;;;6.68;4.47;;;;;;;22.85;81.52;96644.09;5001986;28;20046;-65
2022/06/03 07:02:50;;;;;;;12.03;4.93;;;;;;;21.47;88.70;96638.28;5001559;28;20045;-65
2022/06/03 07:05:44;;;;;;;9.00;4.97;;;;;;;23.64;78.95;96638.56;4995582;28;20049;-64
2022/06/03 07:08:29;;;;;;;6.50;4.68;;;;;;;22.13;85.50;96643.56;4988396;28;20273;-67
2022/06/03 07:11:05;;;;;;;9.38;4.70;;;;;;;24.34;75.73;96643.97;5009521;28;20067;-65
2022/06/03 07:13:39;;;;;;;6.20;4.55;;;;;;;24.99;69.25;96640.16;5012949;28;20132;-65
2022/06/03 07:16:10;;;;;;;4.82;3.80;;;;;;;25.50;69.22;96638.03;4988973;28;20049;-64
2022/06/03 07:22:14;;;;;;;8.15;3.58;;;;;;;28.49;54.52;96629.63;4996875;28;20050;-65
2022/06/03 07:25:02;;;;;;;8.88;4.25;;;;;;;24.03;73.97;96636.38;5000709;28;20049;-65
2022/06/03 07:27:43;;;;;;;10.52;3.75;;;;;;;24.76;70.43;96629.53;4991747;28;20148;-65
2022/06/03 07:30:23;;;;;;;7.28;3.40;;;;;;;25.36;67.54;96629.00;4994868;28;20076;-65
2022/06/03 07:33:00;;;;;;;5.38;3.30;;;;;;;26.98;57.88;96632.72;5000077;28;20034;-66
2022/06/03 07:35:58;;;;;;;8.63;3.60;;;;;;;24.69;68.36;96636.19;4992815;28;20041;-65
2022/06/03 07:38:39;;;;;;;6.85;3.80;;;;;;;25.03;68.72;96630.81;4991552;28;20117;-65
2022/06/03 07:41:09;;;;;;;6.20;3.90;;;;;;;23.63;72.08;96629.41;4994603;28;20615;-63
2022/06/03 07:44:08;;;;;;;8.25;3.20;;;;;;;25.89;64.32;96621.44;5000983;28;20067;-63
2022/06/03 07:46:53;;;;;;;8.00;2.85;;;;;;;28.93;51.37;96634.38;5009292;28;20062;-64
2022/06/03 07:49:25;;;;;;;5.70;2.80;;;;;;;30.08;46.78;96628.28;4994052;28;20042;-64
2022/06/03 07:52:13;;;;;;;8.23;2.70;;;;;;;28.95;48.45;96629.03;4992178;28;20038;-61
2022/06/03 07:54:51;;;;;;;5.03;2.97;;;;;;;27.17;53.73;96624.16;5000822;28;20034;-63
2022/06/03 07:57:22;;;;;;;3.95;3.13;;;;;;;24.55;65.45;96617.19;5000973;28;20530;-63
2022/06/03 07:59:49;;;;;;;4.68;2.97;;;;;;;26.59;58.41;96617.78;5000767;28;20047;-63
2022/06/03 08:02:17;;;;;;;4.30;2.60;;;;;;;26.72;56.33;96615.53;4998386;28;20050;-64
2022/06/03 08:04:46;;;;;;;6.05;2.67;;;;;;;25.81;60.22;96614.63;5002363;28;20033;-63
2022/06/03 08:12:59;;;;;;;6.18;4.15;;;;;;;24.21;71.01;96594.47;5016055;28;20041;-63
2022/06/03 08:15:51;;;;;;;8.50;3.88;;;;;;;25.70;67.14;96587.84;5004423;28;20052;-61
2022/06/03 08:18:18;;;;;;;8.32;3.35;;;;;;;27.20;59.75;96586.66;5002780;28;20398;-61
2022/06/03 08:21:08;;;;;;;5.30;3.38;;;;;;;28.22;55.70;96586.47;4999566;28;20065;-62
2022/06/03 08:23:35;;;;;;;7.72;2.95;;;;;;;29.11;51.44;96582.59;5000020;28;20049;-62
2022/06/03 08:26:08;;;;;;;4.13;3.15;;;;;;;29.07;50.82;96585.63;4996619;28;20060;-62
2022/06/03 08:28:36;;;;;;;6.38;3.40;;;;;;;28.06;52.19;96581.34;5002487;28;20124;-63
2022/06/03 08:31:04;;;;;;;4.72;3.10;;;;;;;28.35;54.09;96578.47;5001734;28;20395;-63
2022/06/03 08:33:46;;;;;;;4.73;3.13;;;;;;;28.67;52.50;96573.06;5002329;28;20050;-64
2022/06/03 08:36:19;;;;;;;7.40;2.53;;;;;;;27.01;54.80;96571.97;4995483;28;20108;-63
2022/06/03 08:38:57;;;;;;;5.30;2.95;;;;;;;26.29;56.35;96570.66;5001865;28;20054;-64
2022/06/03 08:41:51;;;;;;;4.25;2.53;;;;;;;25.51;62.80;96553.44;4995327;28;21052;-62
2022/06/03 08:44:28;;;;;;;4.45;2.83;;;;;;;26.96;59.12;96550.94;4993112;28;20041;-62
2022/06/03 08:47:09;;;;;;;14.02;8.27;;;;;;;25.41;63.16;96548.31;4999397;28;20058;-63
2022/06/03 08:50:10;;;;;;;5.47;3.17;;;;;;;24.62;66.71;96549.69;4998014;28;20048;-63
2022/06/03 08:53:00;;;;;;;8.90;3.45;;;;;;;24.50;65.36;96550.56;4997072;28;20058;-63
2022/06/03 08:55:44;;;;;;;6.15;2.55;;;;;;;25.58;63.09;96538.31;4992979;28;20065;-63
2022/06/03 08:58:35;;;;;;;5.63;3.10;;;;;;;25.39;63.55;96529.19;4990961;28;20042;-63
2022/06/03 09:01:23;;;;;;;8.52;3.00;;;;;;;26.77;57.82;96532.66;4996361;28;20073;-65
2022/06/03 09:04:09;;;;;;;11.30;3.05;;;;;;;25.10;62.15;96521.22;4998098;28;20050;-63
2022/06/03 09:06:38;;;;;;;7.60;2.45;;;;;;;25.02;65.60;96517.19;4985581;28;20046;-63
2022/06/03 09:09:38;;;;;;;6.50;2.72;;;;;;;25.47;62.62;96502.34;5001006;28;20052;-63
2022/06/03 09:12:28;;;;;;;3.33;2.38;;;;;;;25.65;61.18;96503.56;5016776;28;20186;-63
2022/06/03 09:14:54;;;;;;;;;;;;;;;25.10;64.68;96491.19;5017121;28;20052;-64
2022/06/03 09:17:35;;;;;;;4.55;2.70;;;;;;;25.73;63.47;96493.53;4994037;28;19925;-63
2022/06/03 09:20:13;;;;;;;5.28;2.63;;;;;;;25.95;62.64;96484.94;4999898;28;20050;-64
2022/06/03 09:22:40;;;;;;;4.43;2.65;;;;;;;26.09;59.54;96487.03;4996047;28;20136;-64
2022/06/03 09:25:11;;;;;;;4.13;2.33;;;;;;;26.60;59.32;96487.34;5014623;28;20107;-61
2022/06/03 09:27:38;;;;;;;4.35;2.75;;;;;;;25.55;61.56;96475.56;5000379;28;20042;-64
2022/06/03 09:30:06;;;;;;;3.83;2.92;;;;;;;25.87;61.37;96467.63;4996368;28;20034;-63
2022/06/03 09:32:38;;;;;;;7.22;2.50;;;;;;;25.89;59.77;96461.53;4997380;28;20042;-64
2022/06/03 09:35:13;;;;;;;6.38;2.67;;;;;;;24.97;63.30;96463.34;4995238;28;20056;-62
2022/06/03 09:37:46;;;;;;;6.15;2.88;;;;;;;25.07;66.37;96444.50;5000078;28;20104;-63
2022/06/03 09:40:16;;;;;;;2.85;2.40;;;;;;;24.90;64.09;96444.06;4992612;28;20104;-64
2022/06/03 09:43:06;;;;;;;4.53;2.63;;;;;;;25.09;62.12;96455.25;5002276;28;20054;-63
2022/06/03 09:45:34;;;;;;;4.95;2.38;;;;;;;26.07;59.28;96444.66;4995366;28;20123;-63
2022/06/03 09:48:01;;;;;;;4.32;2.63;;;;;;;26.16;60.38;96445.84;5001394;28;20111;-64
2022/06/03 09:50:28;;;;;;;4.00;2.20;;;;;;;26.20;59.95;96450.03;5014300;28;20113;-64
2022/06/03 09:53:06;;;;;;;4.45;2.30;;;;;;;25.46;57.34;96444.75;5007845;28;20053;-63
2022/06/03 09:55:43;;;;;;;4.88;2.25;;;;;;;25.51;60.21;96446.13;5001162;28;20408;-64
2022/06/03 09:58:17;;;;;;;4.13;2.25;;;;;;;26.23;58.25;96451.09;4995820;28;20502;-62
2022/06/03 10:00:48;;;;;;;6.97;2.30;;;;;;;27.04;55.34;96448.13;4997857;28;20038;-61
2022/06/03 10:03:14;;;;;;;6.93;3.80;;;;;;;27.42;59.70;96449.34;4991089;28;20095;-63
2022/06/03 10:05:42;;;;;;;5.65;4.97;;;;;;;26.84;62.89;96448.00;4997508;28;20046;-63
2022/06/03 10:08:10;;;;;;;5.20;3.50;;;;;;;27.43;61.01;96448.06;4991273;28;20070;-63
2022/06/03 10:13:21;;;;;;;7.25;4.38;;;;;;;27.57;61.03;96449.31;4996382;28;20118;-63
2022/06/03 10:16:00;;;;;;;12.43;6.90;;;;;;;26.37;62.14;96463.63;5002639;28;20566;-62
2022/06/03 10:18:32;;;;;;;8.27;5.70;;;;;;;26.76;62.84;96452.44;4986744;28;20042;-62
2022/06/03 10:21:19;;;;;;;7.53;5.68;;;;;;;27.02;61.28;96459.06;4997011;28;20441;-62
2022/06/03 10:23:55;;;;;;;10.40;5.32;;;;;;;27.28;60.79;96452.94;5001567;28;20034;-62
2022/06/03 10:26:38;;;;;;;19.15;10.65;;;;;;;27.49;60.23;96448.16;4993280;28;20033;-65
2022/06/03 10:29:13;;;;;;;8.13;4.53;;;;;;;27.71;58.49;96442.09;4987268;28;20077;-62
2022/06/03 10:31:39;;;;;;;8.30;4.03;;;;;;;27.67;58.39;96449.97;5000387;28;20399;-62
2022/06/03 10:34:10;;;;;;;6.25;3.85;;;;;;;27.79;56.78;96448.88;4993941;28;20061;-61
2022/06/03 10:36:43;;;;;;;5.28;4.00;;;;;;;28.58;55.03;96450.00;4997331;28;20604;-62
2022/06/03 10:39:12;;;;;;;5.60;3.58;;;;;;;28.40;56.30;96447.47;4991840;28;20042;-61
2022/06/03 10:41:45;;;;;;;4.55;3.45;;;;;;;28.95;54.24;96437.34;4991178;28;20049;-63
2022/06/03 10:44:19;;;;;;;5.18;3.45;;;;;;;28.67;54.92;96437.81;4983255;28;20038;-64
2022/06/03 10:47:02;;;;;;;7.28;3.80;;;;;;;28.66;55.63;96436.25;4992930;28;20110;-63
2022/06/03 10:49:30;;;;;;;5.18;3.70;;;;;;;28.41;57.24;96427.25;4984559;28;20128;-63
2022/06/03 11:03:24;;;;;;;10.80;4.80;;;;;;;28.34;59.30;96430.50;4988174;28;20442;-62
2022/06/03 11:05:49;;;;;;;8.55;4.45;;;;;;;28.33;58.86;96440.19;4990693;28;20125;-63
2022/06/03 11:08:14;;;;;;;10.07;4.60;;;;;;;28.49;57.34;96440.91;4988687;28;20464;-63
2022/06/03 11:10:49;;;;;;;6.60;4.55;;;;;;;28.44;57.81;96445.19;4992852;28;20737;-63
2022/06/03 11:13:39;;;;;;;6.90;4.40;;;;;;;28.48;59.27;96439.34;4992869;28;20054;-62
2022/06/03 11:16:22;;;;;;;8.35;4.72;;;;;;;28.15;59.46;96455.31;4993786;28;20477;-62
2022/06/03 11:18:47;;;;;;;5.72;4.10;;;;;;;28.51;59.00;96450.41;4993063;28;20553;-63
2022/06/03 11:21:22;;;;;;;9.35;3.67;;;;;;;28.91;57.98;96443.19;4994918;28;20195;-65
2022/06/03 11:23:51;;;;;;;5.90;3.35;;;;;;;29.11;57.94;96439.56;5004231;28;20045;-62
2022/06/03 11:26:17;;;;;;;8.43;3.28;;;;;;;29.44;56.62;96443.22;4993903;28;20579;-63
2022/06/03 11:28:53;;;;;;;6.47;2.58;;;;;;;28.87;54.24;96444.69;4994109;28;20136;-64
2022/06/03 11:31:23;;;;;;;7.07;3.45;;;;;;;29.22;57.62;96441.75;4996344;28;21406;-64
2022/06/03 11:33:52;;;;;;;5.97;3.47;;;;;;;29.12;57.25;96438.28;4997250;28;20046;-63
2022/06/03 11:36:35;;;;;;;8.18;3.60;;;;;;;29.57;56.19;96432.31;4990423;28;20078;-64
2022/06/03 11:39:19;;;;;;;3.42;2.70;;;;;;;29.77;54.04;96439.91;4994613;28;20077;-64
2022/06/03 11:42:08;;;;;;;4.13;2.38;;;;;;;28.90;51.95;96432.41;4994714;28;20057;-65
2022/06/03 11:44:45;;;;;;;;;;;;;;;29.22;51.28;96441.75;4998316;28;20041;-64
2022/06/03 11:47:19;;;;;;;5.28;2.50;;;;;;;28.70;49.63;96444.50;4994090;28;20381;-64
2022/06/03 11:49:45;;;;;;;3.70;1.88;;;;;;;28.27;45.89;96438.56;4997779;28;20042;-64
2022/06/03 11:52:11;;;;;;;3.20;1.90;;;;;;;28.18;49.60;96431.81;4989428;28;20054;-64
2022/06/03 11:54:37;;;;;;;3.97;1.77;;;;;;;27.55;51.13;96442.63;4997376;28;20401;-63
2022/06/03 11:57:03;;;;;;;5.30;2.03;;;;;;;27.34;51.87;96436.91;4999033;28;20133;-63
2022/06/03 11:59:50;;;;;;;4.85;2.08;;;;;;;28.26;49.18;96443.44;5001103;28;20469;-64
2022/06/03 12:02:18;;;;;;;10.07;1.65;;;;;;;27.58;50.00;96439.59;4997072;28;20152;-63
2022/06/03 12:04:47;;;;;;;4.25;1.90;;;;;;;27.11;46.22;96440.56;5008341;28;20041;-62
2022/06/03 12:07:34;;;;;;;7.20;2.47;;;;;;;27.52;50.65;96435.16;5002460;28;20053;-64
2022/06/03 12:10:21;;;;;;;4.65;1.85;;;;;;;27.77;47.39;96442.97;5000234;28;20041;-63
2022/06/03 12:13:15;;;;;;;7.60;2.40;;;;;;;27.22;50.17;96435.16;4999947;28;20708;-63
2022/06/03 12:15:58;;;;;;;2.60;1.42;;;;;;;26.59;53.29;96441.63;5002000;28;20053;-63
2022/06/03 12:18:32;;;;;;;3.40;1.88;;;;;;;26.46;53.66;96432.69;4995573;28;20318;-63
2022/06/03 12:21:08;;;;;;;3.10;1.90;;;;;;;26.48;54.01;96432.97;4997337;28;20033;-64
2022/06/03 12:23:49;;;;;;;4.82;2.22;;;;;;;26.94;54.28;96429.00;5004352;28;20045;-63
2022/06/03 12:26:29;;;;;;;5.13;2.20;;;;;;;27.42;53.33;96426.84;4995330;28;20495;-63
2022/06/03 12:29:06;;;;;;;25.50;17.00;;;;;;;27.79;52.39;96419.97;5007508;28;20038;-63
2022/06/03 12:31:44;;;;;;;2.80;1.83;;;;;;;28.12;49.15;96422.50;5009293;28;20049;-63
2022/06/03 12:34:21;;;;;;;5.93;1.90;;;;;;;28.17;48.10;96429.50;4999790;28;20049;-63
2022/06/03 12:36:53;;;;;;;2.42;1.50;;;;;;;28.22;47.03;96440.06;5004966;28;20589;-62
2022/06/03 12:39:18;;;;;;;6.78;2.30;;;;;;;28.17;47.53;96443.56;4997749;28;20061;-64
2022/06/03 12:41:44;;;;;;;7.18;2.28;;;;;;;28.08;48.96;96443.69;5001364;28;20050;-64
2022/06/03 12:44:35;;;;;;;4.82;1.90;;;;;;;28.03;50.10;96431.84;4997217;28;20061;-64
2022/06/03 12:47:29;;;;;;;5.72;2.10;;;;;;;28.00;50.31;96437.69;4999502;28;20064;-61
2022/06/03 12:50:23;;;;;;;3.20;2.00;;;;;;;27.84;52.15;96442.56;5006142;28;20125;-62
2022/06/03 12:52:52;;;;;;;3.60;2.10;;;;;;;27.75;52.42;96434.25;5018266;28;20382;-62
2022/06/03 12:55:25;;;;;;;6.73;2.40;;;;;;;27.76;53.50;96432.19;4997936;28;20104;-63
2022/06/03 12:58:11;;;;;;;4.05;2.35;;;;;;;27.15;56.47;96436.28;5012471;28;20042;-61
2022/06/03 13:00:54;;;;;;;7.13;2.70;;;;;;;26.99;59.88;96451.63;5001002;28;20045;-62
2022/06/03 13:03:19;;;;;;;7.32;2.72;;;;;;;27.09;61.70;96455.88;4990515;28;20089;-62